Impacts METAR Board
IDs:

KPHL - Philadelphia Intl, PA, US

Updated at: 2100 UTC 15 Jun 2019
Potential Impact None Slight Moderate High
Time 15/09Z 15/10Z 15/11Z 15/12Z 15/13Z 15/14Z 15/15Z 15/16Z 15/17Z 15/18Z 15/19Z 15/20Z 15/21Z
Temp54 55 58 62 67 68 71 74 77 78 78 79 79
Dewpt52 53 53 55 56 56 55 54 55 53 52 53 52
Altim30.14 30.14 30.14 30.15 30.15 30.14 30.14 30.12 30.10 30.07 30.04 30.03 30.02
VIS10 10 10 10 10 10 10 10 10 10 10 10 10
CIG-- -- -- 250 250 220 180 250 250 250 250 250 250
CoverSCTSCTSCTBKNBKNBKNBKNBKNBKNBKNBKNBKNBKN
FltCatVFRVFRVFRVFRVFRVFRVFRVFRVFRVFRVFRVFRVFR
WX--------------------------
WDir00210210220220220220230230220230230
WSpd0 0 5 6 8 10 12 14 18 17 18 13 17
WGst-- -- -- -- -- -- -- -- -- -- 24 22 22
Raw hourly METARs
KPHL 150854Z 00000KT 10SM SCT250 12/11 A3014 RMK AO2 SLP204 T01220111 55003 $
KPHL 150954Z 00000KT 10SM FEW180 SCT250 13/12 A3014 RMK AO2 SLP204 T01280117 $
KPHL 151054Z 21005KT 10SM FEW180 SCT250 14/12 A3014 RMK AO2 SLP207 T01440117 $
KPHL 151154Z 21006KT 10SM SCT220 BKN250 17/13 A3015 RMK AO2 SLP209 T01670128 10167 20117 53004 $
KPHL 151254Z 22008KT 10SM SCT210 BKN250 19/13 A3015 RMK AO2 SLP209 T01940133 $
KPHL 151354Z 22010KT 10SM SCT180 BKN220 BKN250 20/13 A3014 RMK AO2 SLP206 T02000133 $
KPHL 151454Z 22012KT 10SM BKN180 BKN220 BKN250 22/13 A3014 RMK AO2 SLP204 T02170128 58005
KPHL 151554Z 22014KT 10SM FEW160 SCT220 BKN250 23/12 A3012 RMK AO2 SLP198 T02330122
KPHL 151654Z 23018KT 10SM FEW040 SCT150 BKN250 25/13 A3010 RMK AO2 SLP190 T02500128
KPHL 151754Z 23017KT 10SM FEW045 FEW150 BKN250 26/12 A3007 RMK AO2 SLP182 T02560117 10256 20167 58022
KPHL 151854Z 22018G24KT 10SM FEW050 FEW110 FEW150 BKN250 26/11 A3004 RMK AO2 SLP171 T02560111
KPHL 151954Z 23013G22KT 10SM FEW120 SCT150 BKN250 26/12 A3003 RMK AO2 SLP167 T02610117
KPHL 152054Z 23017G22KT 10SM FEW120 SCT220 BKN250 26/11 A3002 RMK AO2 SLP164 T02610111 56018



Page loaded:  21:14 UTC  |   02:14 PM Pacific  |   03:14 PM Mountain  |   04:14 PM Central  |   05:14 PM Eastern

 

ADVISORIES

FORECASTS

FORECASTS

OBSERVATIONS

USER TOOLS

ABOUT US